sensor_id;sensor_type;location;lat;lon;timestamp;P1;durP1;ratioP1;P2;durP2;ratioP2
19816;SDS011;68323;49.394;8.434;2023-08-01T00:02:23;10.77;;;6.30;;
19816;SDS011;68323;49.394;8.434;2023-08-01T00:04:48;17.80;;;7.40;;
19816;SDS011;68323;49.394;8.434;2023-08-01T00:07:14;13.57;;;6.70;;
19816;SDS011;68323;49.394;8.434;2023-08-01T00:09:40;10.57;;;6.63;;
19816;SDS011;68323;49.394;8.434;2023-08-01T00:12:06;11.17;;;6.60;;
19816;SDS011;68323;49.394;8.434;2023-08-01T00:14:32;10.53;;;6.90;;
19816;SDS011;68323;49.394;8.434;2023-08-01T00:16:57;10.70;;;6.53;;
19816;SDS011;68323;49.394;8.434;2023-08-01T00:19:23;12.27;;;6.80;;
19816;SDS011;68323;49.394;8.434;2023-08-01T00:21:49;16.00;;;7.73;;
19816;SDS011;68323;49.394;8.434;2023-08-01T00:24:15;12.70;;;7.03;;
19816;SDS011;68323;49.394;8.434;2023-08-01T00:26:40;11.57;;;6.67;;
19816;SDS011;68323;49.394;8.434;2023-08-01T00:29:06;13.90;;;7.47;;
19816;SDS011;68323;49.394;8.434;2023-08-01T00:31:31;14.67;;;7.40;;
19816;SDS011;68323;49.394;8.434;2023-08-01T00:33:57;13.77;;;7.63;;
19816;SDS011;68323;49.394;8.434;2023-08-01T00:36:22;21.23;;;8.00;;
19816;SDS011;68323;49.394;8.434;2023-08-01T00:38:48;12.80;;;7.10;;
19816;SDS011;68323;49.394;8.434;2023-08-01T00:41:13;12.43;;;7.03;;
19816;SDS011;68323;49.394;8.434;2023-08-01T00:43:39;14.13;;;7.20;;
19816;SDS011;68323;49.394;8.434;2023-08-01T00:46:05;13.67;;;7.47;;
19816;SDS011;68323;49.394;8.434;2023-08-01T00:48:31;12.40;;;7.63;;
19816;SDS011;68323;49.394;8.434;2023-08-01T00:50:57;15.10;;;7.27;;
19816;SDS011;68323;49.394;8.434;2023-08-01T00:53:25;14.43;;;7.37;;
19816;SDS011;68323;49.394;8.434;2023-08-01T00:55:53;15.17;;;7.60;;
19816;SDS011;68323;49.394;8.434;2023-08-01T00:58:19;13.03;;;7.57;;
19816;SDS011;68323;49.394;8.434;2023-08-01T01:00:45;12.57;;;7.47;;
19816;SDS011;68323;49.394;8.434;2023-08-01T01:03:12;16.70;;;7.57;;
19816;SDS011;68323;49.394;8.434;2023-08-01T01:05:38;11.57;;;7.57;;
19816;SDS011;68323;49.394;8.434;2023-08-01T01:08:07;10.67;;;7.03;;
19816;SDS011;68323;49.394;8.434;2023-08-01T01:10:33;14.87;;;7.57;;
19816;SDS011;68323;49.394;8.434;2023-08-01T01:12:59;12.67;;;7.33;;
19816;SDS011;68323;49.394;8.434;2023-08-01T01:15:24;13.47;;;7.40;;
19816;SDS011;68323;49.394;8.434;2023-08-01T01:17:50;11.63;;;7.20;;
19816;SDS011;68323;49.394;8.434;2023-08-01T01:20:20;14.87;;;7.50;;
19816;SDS011;68323;49.394;8.434;2023-08-01T01:22:49;12.77;;;6.97;;
19816;SDS011;68323;49.394;8.434;2023-08-01T01:25:17;14.57;;;7.60;;
19816;SDS011;68323;49.394;8.434;2023-08-01T01:27:44;12.97;;;7.50;;
19816;SDS011;68323;49.394;8.434;2023-08-01T01:30:11;13.70;;;7.03;;
19816;SDS011;68323;49.394;8.434;2023-08-01T01:32:37;10.90;;;6.70;;
19816;SDS011;68323;49.394;8.434;2023-08-01T01:35:03;13.03;;;6.87;;
19816;SDS011;68323;49.394;8.434;2023-08-01T01:37:29;11.87;;;6.70;;
19816;SDS011;68323;49.394;8.434;2023-08-01T01:39:55;13.27;;;6.77;;
19816;SDS011;68323;49.394;8.434;2023-08-01T01:42:20;12.70;;;6.90;;
19816;SDS011;68323;49.394;8.434;2023-08-01T01:44:46;11.17;;;6.80;;
19816;SDS011;68323;49.394;8.434;2023-08-01T01:47:11;11.20;;;6.70;;
19816;SDS011;68323;49.394;8.434;2023-08-01T01:49:37;9.83;;;6.27;;
19816;SDS011;68323;49.394;8.434;2023-08-01T01:52:02;12.73;;;6.97;;
19816;SDS011;68323;49.394;8.434;2023-08-01T01:54:28;14.27;;;6.93;;
19816;SDS011;68323;49.394;8.434;2023-08-01T01:56:54;12.50;;;7.10;;
19816;SDS011;68323;49.394;8.434;2023-08-01T01:59:19;14.07;;;7.10;;
19816;SDS011;68323;49.394;8.434;2023-08-01T02:01:45;13.37;;;6.80;;
19816;SDS011;68323;49.394;8.434;2023-08-01T02:04:10;11.10;;;6.77;;
19816;SDS011;68323;49.394;8.434;2023-08-01T02:06:36;14.40;;;7.43;;
19816;SDS011;68323;49.394;8.434;2023-08-01T02:09:01;16.23;;;7.23;;
19816;SDS011;68323;49.394;8.434;2023-08-01T02:11:27;14.33;;;6.83;;
19816;SDS011;68323;49.394;8.434;2023-08-01T02:13:53;13.60;;;7.33;;
19816;SDS011;68323;49.394;8.434;2023-08-01T02:16:19;13.00;;;7.67;;
19816;SDS011;68323;49.394;8.434;2023-08-01T02:18:44;12.40;;;7.50;;
19816;SDS011;68323;49.394;8.434;2023-08-01T02:21:10;14.70;;;7.23;;
19816;SDS011;68323;49.394;8.434;2023-08-01T02:23:35;14.30;;;7.47;;
19816;SDS011;68323;49.394;8.434;2023-08-01T02:26:02;14.43;;;7.50;;
19816;SDS011;68323;49.394;8.434;2023-08-01T02:28:28;13.73;;;7.47;;
19816;SDS011;68323;49.394;8.434;2023-08-01T02:30:53;13.87;;;7.30;;
19816;SDS011;68323;49.394;8.434;2023-08-01T02:33:19;12.53;;;7.50;;
19816;SDS011;68323;49.394;8.434;2023-08-01T02:35:45;17.07;;;7.40;;
19816;SDS011;68323;49.394;8.434;2023-08-01T02:38:11;16.73;;;8.00;;
19816;SDS011;68323;49.394;8.434;2023-08-01T02:40:37;15.13;;;7.53;;
19816;SDS011;68323;49.394;8.434;2023-08-01T02:43:02;12.53;;;7.43;;
19816;SDS011;68323;49.394;8.434;2023-08-01T02:45:28;14.83;;;7.00;;
19816;SDS011;68323;49.394;8.434;2023-08-01T02:47:53;13.60;;;6.83;;
19816;SDS011;68323;49.394;8.434;2023-08-01T02:50:19;14.30;;;7.03;;
19816;SDS011;68323;49.394;8.434;2023-08-01T02:52:44;14.03;;;7.77;;
19816;SDS011;68323;49.394;8.434;2023-08-01T02:55:10;13.70;;;6.97;;
19816;SDS011;68323;49.394;8.434;2023-08-01T02:57:35;11.77;;;6.43;;
19816;SDS011;68323;49.394;8.434;2023-08-01T03:00:01;16.70;;;7.07;;
19816;SDS011;68323;49.394;8.434;2023-08-01T03:02:30;12.27;;;6.60;;
19816;SDS011;68323;49.394;8.434;2023-08-01T03:04:56;10.23;;;6.97;;
19816;SDS011;68323;49.394;8.434;2023-08-01T03:07:21;11.47;;;6.30;;
19816;SDS011;68323;49.394;8.434;2023-08-01T03:09:47;15.40;;;6.50;;
19816;SDS011;68323;49.394;8.434;2023-08-01T03:12:13;14.33;;;6.30;;
19816;SDS011;68323;49.394;8.434;2023-08-01T03:14:38;12.37;;;6.30;;
19816;SDS011;68323;49.394;8.434;2023-08-01T03:17:06;12.10;;;6.67;;
19816;SDS011;68323;49.394;8.434;2023-08-01T03:19:33;11.97;;;6.80;;
19816;SDS011;68323;49.394;8.434;2023-08-01T03:21:58;15.43;;;6.70;;
19816;SDS011;68323;49.394;8.434;2023-08-01T03:24:25;12.37;;;6.60;;
19816;SDS011;68323;49.394;8.434;2023-08-01T03:26:50;13.03;;;6.20;;
19816;SDS011;68323;49.394;8.434;2023-08-01T03:29:16;13.20;;;5.93;;
19816;SDS011;68323;49.394;8.434;2023-08-01T03:31:41;13.03;;;6.10;;
19816;SDS011;68323;49.394;8.434;2023-08-01T03:34:07;12.00;;;5.83;;
19816;SDS011;68323;49.394;8.434;2023-08-01T03:36:33;9.60;;;6.03;;
19816;SDS011;68323;49.394;8.434;2023-08-01T03:38:59;11.13;;;6.17;;
19816;SDS011;68323;49.394;8.434;2023-08-01T03:41:25;14.77;;;6.13;;
19816;SDS011;68323;49.394;8.434;2023-08-01T03:43:50;9.83;;;5.77;;
19816;SDS011;68323;49.394;8.434;2023-08-01T03:46:16;11.73;;;6.10;;
19816;SDS011;68323;49.394;8.434;2023-08-01T03:48:41;10.40;;;5.70;;
19816;SDS011;68323;49.394;8.434;2023-08-01T03:51:08;12.07;;;5.90;;
19816;SDS011;68323;49.394;8.434;2023-08-01T03:53:33;10.57;;;6.03;;
19816;SDS011;68323;49.394;8.434;2023-08-01T03:55:59;12.87;;;6.13;;
19816;SDS011;68323;49.394;8.434;2023-08-01T03:58:25;9.17;;;5.80;;
19816;SDS011;68323;49.394;8.434;2023-08-01T04:00:50;10.00;;;5.80;;
19816;SDS011;68323;49.394;8.434;2023-08-01T04:03:16;11.20;;;5.97;;
19816;SDS011;68323;49.394;8.434;2023-08-01T04:05:41;11.37;;;5.87;;
19816;SDS011;68323;49.394;8.434;2023-08-01T04:08:07;11.00;;;5.80;;
19816;SDS011;68323;49.394;8.434;2023-08-01T04:10:33;12.53;;;5.90;;
19816;SDS011;68323;49.394;8.434;2023-08-01T04:12:58;13.50;;;5.83;;
19816;SDS011;68323;49.394;8.434;2023-08-01T04:15:24;10.10;;;5.53;;
19816;SDS011;68323;49.394;8.434;2023-08-01T04:17:50;11.93;;;5.80;;
19816;SDS011;68323;49.394;8.434;2023-08-01T04:20:15;10.70;;;6.10;;
19816;SDS011;68323;49.394;8.434;2023-08-01T04:22:41;10.73;;;5.53;;
19816;SDS011;68323;49.394;8.434;2023-08-01T04:25:06;8.83;;;5.53;;
19816;SDS011;68323;49.394;8.434;2023-08-01T04:27:32;11.83;;;6.20;;
19816;SDS011;68323;49.394;8.434;2023-08-01T04:29:58;9.70;;;5.37;;
19816;SDS011;68323;49.394;8.434;2023-08-01T04:32:23;11.90;;;5.93;;
19816;SDS011;68323;49.394;8.434;2023-08-01T04:34:49;11.13;;;6.00;;
19816;SDS011;68323;49.394;8.434;2023-08-01T04:37:14;11.10;;;5.10;;
19816;SDS011;68323;49.394;8.434;2023-08-01T04:39:40;11.13;;;5.27;;
19816;SDS011;68323;49.394;8.434;2023-08-01T04:42:06;11.57;;;5.67;;
19816;SDS011;68323;49.394;8.434;2023-08-01T04:44:31;9.83;;;5.43;;
19816;SDS011;68323;49.394;8.434;2023-08-01T04:46:57;10.60;;;5.53;;
19816;SDS011;68323;49.394;8.434;2023-08-01T04:49:22;10.63;;;5.43;;
19816;SDS011;68323;49.394;8.434;2023-08-01T04:51:49;9.23;;;6.23;;
19816;SDS011;68323;49.394;8.434;2023-08-01T04:54:15;9.80;;;5.87;;
19816;SDS011;68323;49.394;8.434;2023-08-01T04:56:40;10.40;;;6.00;;
19816;SDS011;68323;49.394;8.434;2023-08-01T04:59:06;11.93;;;7.33;;
19816;SDS011;68323;49.394;8.434;2023-08-01T05:01:32;10.13;;;6.13;;
19816;SDS011;68323;49.394;8.434;2023-08-01T05:03:57;12.30;;;6.33;;
19816;SDS011;68323;49.394;8.434;2023-08-01T05:06:23;10.20;;;6.20;;
19816;SDS011;68323;49.394;8.434;2023-08-01T05:08:48;12.03;;;6.60;;
19816;SDS011;68323;49.394;8.434;2023-08-01T05:11:14;10.47;;;6.40;;
19816;SDS011;68323;49.394;8.434;2023-08-01T05:13:39;11.17;;;6.60;;
19816;SDS011;68323;49.394;8.434;2023-08-01T05:16:05;17.90;;;6.37;;
19816;SDS011;68323;49.394;8.434;2023-08-01T05:18:30;12.20;;;6.90;;
19816;SDS011;68323;49.394;8.434;2023-08-01T05:20:56;16.23;;;6.43;;
19816;SDS011;68323;49.394;8.434;2023-08-01T05:23:21;10.80;;;6.73;;
19816;SDS011;68323;49.394;8.434;2023-08-01T05:25:47;13.73;;;7.20;;
19816;SDS011;68323;49.394;8.434;2023-08-01T05:28:12;12.50;;;7.20;;
19816;SDS011;68323;49.394;8.434;2023-08-01T05:30:39;11.23;;;7.33;;
19816;SDS011;68323;49.394;8.434;2023-08-01T05:33:05;13.37;;;7.63;;
19816;SDS011;68323;49.394;8.434;2023-08-01T05:35:31;16.70;;;8.77;;
19816;SDS011;68323;49.394;8.434;2023-08-01T05:37:56;10.90;;;8.03;;
19816;SDS011;68323;49.394;8.434;2023-08-01T05:40:22;14.37;;;8.20;;
19816;SDS011;68323;49.394;8.434;2023-08-01T05:42:47;15.03;;;8.53;;
19816;SDS011;68323;49.394;8.434;2023-08-01T05:45:13;19.43;;;9.23;;
19816;SDS011;68323;49.394;8.434;2023-08-01T05:47:39;13.60;;;8.40;;
19816;SDS011;68323;49.394;8.434;2023-08-01T05:50:05;13.27;;;8.17;;
19816;SDS011;68323;49.394;8.434;2023-08-01T05:52:32;12.27;;;8.30;;
19816;SDS011;68323;49.394;8.434;2023-08-01T05:54:58;17.43;;;8.17;;
19816;SDS011;68323;49.394;8.434;2023-08-01T05:57:24;17.20;;;8.50;;
19816;SDS011;68323;49.394;8.434;2023-08-01T05:59:49;15.27;;;8.17;;
19816;SDS011;68323;49.394;8.434;2023-08-01T06:02:15;15.83;;;8.73;;
19816;SDS011;68323;49.394;8.434;2023-08-01T06:04:41;13.63;;;8.47;;
19816;SDS011;68323;49.394;8.434;2023-08-01T06:07:06;12.07;;;7.90;;
19816;SDS011;68323;49.394;8.434;2023-08-01T06:09:32;12.67;;;7.30;;
19816;SDS011;68323;49.394;8.434;2023-08-01T06:11:58;12.17;;;7.40;;
19816;SDS011;68323;49.394;8.434;2023-08-01T06:14:23;12.07;;;7.40;;
19816;SDS011;68323;49.394;8.434;2023-08-01T06:16:49;9.77;;;6.03;;
19816;SDS011;68323;49.394;8.434;2023-08-01T06:19:14;10.80;;;6.43;;
19816;SDS011;68323;49.394;8.434;2023-08-01T06:21:40;10.50;;;6.57;;
19816;SDS011;68323;49.394;8.434;2023-08-01T06:24:06;9.17;;;6.20;;
19816;SDS011;68323;49.394;8.434;2023-08-01T06:26:33;9.40;;;6.47;;
19816;SDS011;68323;49.394;8.434;2023-08-01T06:28:59;10.90;;;6.27;;
19816;SDS011;68323;49.394;8.434;2023-08-01T06:31:24;39.97;;;7.73;;
19816;SDS011;68323;49.394;8.434;2023-08-01T06:33:50;121.70;;;10.53;;
19816;SDS011;68323;49.394;8.434;2023-08-01T06:36:15;46.70;;;8.70;;
19816;SDS011;68323;49.394;8.434;2023-08-01T06:38:42;25.37;;;7.43;;
19816;SDS011;68323;49.394;8.434;2023-08-01T06:41:08;66.40;;;8.43;;
19816;SDS011;68323;49.394;8.434;2023-08-01T06:43:33;24.10;;;7.10;;
19816;SDS011;68323;49.394;8.434;2023-08-01T06:45:59;13.10;;;6.53;;
19816;SDS011;68323;49.394;8.434;2023-08-01T06:48:24;9.00;;;5.43;;
19816;SDS011;68323;49.394;8.434;2023-08-01T06:50:50;9.13;;;5.60;;
19816;SDS011;68323;49.394;8.434;2023-08-01T06:53:16;13.93;;;6.23;;
19816;SDS011;68323;49.394;8.434;2023-08-01T06:55:41;10.27;;;5.97;;
19816;SDS011;68323;49.394;8.434;2023-08-01T06:58:07;9.43;;;5.97;;
19816;SDS011;68323;49.394;8.434;2023-08-01T07:00:33;10.23;;;5.93;;
19816;SDS011;68323;49.394;8.434;2023-08-01T07:02:58;10.20;;;5.50;;
19816;SDS011;68323;49.394;8.434;2023-08-01T07:05:24;11.37;;;5.77;;
19816;SDS011;68323;49.394;8.434;2023-08-01T07:07:49;12.00;;;5.97;;
19816;SDS011;68323;49.394;8.434;2023-08-01T07:10:15;9.90;;;5.67;;
19816;SDS011;68323;49.394;8.434;2023-08-01T07:12:40;7.00;;;4.77;;
19816;SDS011;68323;49.394;8.434;2023-08-01T07:15:06;7.93;;;4.80;;
19816;SDS011;68323;49.394;8.434;2023-08-01T07:17:32;8.50;;;4.83;;
19816;SDS011;68323;49.394;8.434;2023-08-01T07:19:58;7.73;;;4.90;;
19816;SDS011;68323;49.394;8.434;2023-08-01T07:22:24;6.37;;;4.27;;
19816;SDS011;68323;49.394;8.434;2023-08-01T07:24:53;8.07;;;4.30;;
19816;SDS011;68323;49.394;8.434;2023-08-01T07:27:19;5.23;;;3.67;;
19816;SDS011;68323;49.394;8.434;2023-08-01T07:29:44;4.90;;;3.30;;
19816;SDS011;68323;49.394;8.434;2023-08-01T07:32:10;5.83;;;3.60;;
19816;SDS011;68323;49.394;8.434;2023-08-01T07:34:36;4.27;;;3.40;;
19816;SDS011;68323;49.394;8.434;2023-08-01T07:37:01;7.53;;;3.83;;
19816;SDS011;68323;49.394;8.434;2023-08-01T07:39:27;5.13;;;3.23;;
19816;SDS011;68323;49.394;8.434;2023-08-01T07:41:53;5.37;;;3.60;;
19816;SDS011;68323;49.394;8.434;2023-08-01T07:44:20;5.90;;;3.63;;
19816;SDS011;68323;49.394;8.434;2023-08-01T07:46:45;4.50;;;3.30;;
19816;SDS011;68323;49.394;8.434;2023-08-01T07:49:11;5.00;;;3.33;;
19816;SDS011;68323;49.394;8.434;2023-08-01T07:51:36;5.67;;;2.90;;
19816;SDS011;68323;49.394;8.434;2023-08-01T07:54:02;4.87;;;2.93;;
19816;SDS011;68323;49.394;8.434;2023-08-01T07:56:27;5.57;;;3.33;;
19816;SDS011;68323;49.394;8.434;2023-08-01T07:58:53;5.80;;;3.27;;
19816;SDS011;68323;49.394;8.434;2023-08-01T08:01:18;5.23;;;3.07;;
19816;SDS011;68323;49.394;8.434;2023-08-01T08:03:44;5.07;;;3.20;;
19816;SDS011;68323;49.394;8.434;2023-08-01T08:06:09;3.47;;;2.77;;
19816;SDS011;68323;49.394;8.434;2023-08-01T08:08:35;4.17;;;2.40;;
19816;SDS011;68323;49.394;8.434;2023-08-01T08:11:01;3.15;;;2.13;;
19816;SDS011;68323;49.394;8.434;2023-08-01T08:13:27;6.40;;;2.30;;
19816;SDS011;68323;49.394;8.434;2023-08-01T08:15:56;3.22;;;1.73;;
19816;SDS011;68323;49.394;8.434;2023-08-01T08:18:22;3.63;;;2.30;;
19816;SDS011;68323;49.394;8.434;2023-08-01T08:20:47;2.78;;;1.90;;
19816;SDS011;68323;49.394;8.434;2023-08-01T08:23:13;2.75;;;2.03;;
19816;SDS011;68323;49.394;8.434;2023-08-01T08:25:39;2.10;;;1.90;;
19816;SDS011;68323;49.394;8.434;2023-08-01T08:28:05;3.33;;;1.75;;
19816;SDS011;68323;49.394;8.434;2023-08-01T08:30:31;2.47;;;1.65;;
19816;SDS011;68323;49.394;8.434;2023-08-01T08:32:59;2.75;;;1.88;;
19816;SDS011;68323;49.394;8.434;2023-08-01T08:35:29;4.88;;;1.80;;
19816;SDS011;68323;49.394;8.434;2023-08-01T08:38:01;3.65;;;2.20;;
19816;SDS011;68323;49.394;8.434;2023-08-01T08:40:28;4.03;;;1.92;;
19816;SDS011;68323;49.394;8.434;2023-08-01T08:42:56;2.72;;;2.08;;
19816;SDS011;68323;49.394;8.434;2023-08-01T08:45:25;4.07;;;2.00;;
19816;SDS011;68323;49.394;8.434;2023-08-01T08:47:56;3.65;;;1.90;;
19816;SDS011;68323;49.394;8.434;2023-08-01T08:50:25;2.55;;;0.70;;
19816;SDS011;68323;49.394;8.434;2023-08-01T08:52:53;2.35;;;0.70;;
19816;SDS011;68323;49.394;8.434;2023-08-01T08:55:19;3.60;;;1.10;;
19816;SDS011;68323;49.394;8.434;2023-08-01T08:57:47;2.97;;;1.00;;
19816;SDS011;68323;49.394;8.434;2023-08-01T09:00:16;0.98;;;0.70;;
19816;SDS011;68323;49.394;8.434;2023-08-01T09:02:42;2.75;;;0.82;;
19816;SDS011;68323;49.394;8.434;2023-08-01T09:05:07;2.43;;;0.70;;
19816;SDS011;68323;49.394;8.434;2023-08-01T09:07:33;1.17;;;0.70;;
19816;SDS011;68323;49.394;8.434;2023-08-01T09:10:03;2.80;;;0.70;;
19816;SDS011;68323;49.394;8.434;2023-08-01T09:12:31;1.20;;;0.50;;
19816;SDS011;68323;49.394;8.434;2023-08-01T09:14:59;0.82;;;0.50;;
19816;SDS011;68323;49.394;8.434;2023-08-01T09:17:25;0.98;;;0.50;;
19816;SDS011;68323;49.394;8.434;2023-08-01T09:19:55;1.13;;;0.60;;
19816;SDS011;68323;49.394;8.434;2023-08-01T09:22:40;2.10;;;0.70;;
19816;SDS011;68323;49.394;8.434;2023-08-01T09:25:07;0.73;;;0.50;;
19816;SDS011;68323;49.394;8.434;2023-08-01T09:27:33;0.98;;;0.60;;
19816;SDS011;68323;49.394;8.434;2023-08-01T09:30:05;1.17;;;0.60;;
19816;SDS011;68323;49.394;8.434;2023-08-01T09:32:36;1.35;;;0.70;;
19816;SDS011;68323;49.394;8.434;2023-08-01T09:35:02;1.13;;;0.70;;
19816;SDS011;68323;49.394;8.434;2023-08-01T09:37:37;1.13;;;0.80;;
19816;SDS011;68323;49.394;8.434;2023-08-01T09:40:04;2.35;;;0.90;;
19816;SDS011;68323;49.394;8.434;2023-08-01T09:42:44;1.27;;;0.57;;
19816;SDS011;68323;49.394;8.434;2023-08-01T09:47:39;0.77;;;0.60;;
19816;SDS011;68323;49.394;8.434;2023-08-01T09:50:05;1.10;;;0.90;;
19816;SDS011;68323;49.394;8.434;2023-08-01T09:52:31;2.10;;;0.70;;
19816;SDS011;68323;49.394;8.434;2023-08-01T09:54:57;0.98;;;0.77;;
19816;SDS011;68323;49.394;8.434;2023-08-01T09:57:23;1.95;;;1.00;;
19816;SDS011;68323;49.394;8.434;2023-08-01T09:59:55;1.40;;;0.90;;
19816;SDS011;68323;49.394;8.434;2023-08-01T10:02:21;1.40;;;0.90;;
19816;SDS011;68323;49.394;8.434;2023-08-01T10:04:49;1.20;;;0.80;;
19816;SDS011;68323;49.394;8.434;2023-08-01T10:07:19;1.48;;;0.90;;
19816;SDS011;68323;49.394;8.434;2023-08-01T10:09:48;0.80;;;0.80;;
19816;SDS011;68323;49.394;8.434;2023-08-01T10:12:15;1.50;;;0.95;;
19816;SDS011;68323;49.394;8.434;2023-08-01T10:14:43;1.05;;;0.70;;
19816;SDS011;68323;49.394;8.434;2023-08-01T10:17:09;1.33;;;0.98;;
19816;SDS011;68323;49.394;8.434;2023-08-01T10:19:36;1.48;;;1.10;;
19816;SDS011;68323;49.394;8.434;2023-08-01T10:22:03;0.95;;;0.80;;
19816;SDS011;68323;49.394;8.434;2023-08-01T10:24:31;1.77;;;1.00;;
19816;SDS011;68323;49.394;8.434;2023-08-01T10:26:57;1.10;;;0.98;;
19816;SDS011;68323;49.394;8.434;2023-08-01T10:29:35;2.10;;;1.10;;
19816;SDS011;68323;49.394;8.434;2023-08-01T10:32:01;2.08;;;1.10;;
19816;SDS011;68323;49.394;8.434;2023-08-01T10:34:27;1.08;;;0.88;;
19816;SDS011;68323;49.394;8.434;2023-08-01T10:36:56;2.13;;;1.08;;
19816;SDS011;68323;49.394;8.434;2023-08-01T10:39:23;1.77;;;0.90;;
19816;SDS011;68323;49.394;8.434;2023-08-01T10:42:03;3.35;;;1.10;;
19816;SDS011;68323;49.394;8.434;2023-08-01T10:44:30;1.25;;;1.00;;
19816;SDS011;68323;49.394;8.434;2023-08-01T10:47:02;2.53;;;1.38;;
19816;SDS011;68323;49.394;8.434;2023-08-01T10:52:03;1.70;;;1.10;;
19816;SDS011;68323;49.394;8.434;2023-08-01T10:54:59;1.88;;;1.27;;
19816;SDS011;68323;49.394;8.434;2023-08-01T10:57:27;2.60;;;1.00;;
19816;SDS011;68323;49.394;8.434;2023-08-01T10:59:57;2.13;;;1.08;;
19816;SDS011;68323;49.394;8.434;2023-08-01T11:02:24;1.60;;;1.20;;
19816;SDS011;68323;49.394;8.434;2023-08-01T11:04:58;2.25;;;1.20;;
19816;SDS011;68323;49.394;8.434;2023-08-01T11:07:31;3.00;;;1.60;;
19816;SDS011;68323;49.394;8.434;2023-08-01T11:10:02;3.42;;;1.50;;
19816;SDS011;68323;49.394;8.434;2023-08-01T11:12:33;3.35;;;1.20;;
19816;SDS011;68323;49.394;8.434;2023-08-01T11:15:00;1.83;;;1.20;;
19816;SDS011;68323;49.394;8.434;2023-08-01T11:17:26;3.60;;;1.42;;
19816;SDS011;68323;49.394;8.434;2023-08-01T11:19:59;5.00;;;1.55;;
19816;SDS011;68323;49.394;8.434;2023-08-01T11:22:25;2.45;;;1.55;;
19816;SDS011;68323;49.394;8.434;2023-08-01T11:24:51;2.83;;;1.23;;
19816;SDS011;68323;49.394;8.434;2023-08-01T11:27:16;1.45;;;1.10;;
19816;SDS011;68323;49.394;8.434;2023-08-01T11:29:43;1.80;;;1.10;;
19816;SDS011;68323;49.394;8.434;2023-08-01T11:32:08;2.15;;;1.30;;
19816;SDS011;68323;49.394;8.434;2023-08-01T11:34:40;2.38;;;1.60;;
19816;SDS011;68323;49.394;8.434;2023-08-01T11:37:10;2.17;;;1.20;;
19816;SDS011;68323;49.394;8.434;2023-08-01T11:39:36;1.95;;;1.10;;
19816;SDS011;68323;49.394;8.434;2023-08-01T11:42:01;2.17;;;1.25;;
19816;SDS011;68323;49.394;8.434;2023-08-01T11:44:28;3.72;;;1.20;;
19816;SDS011;68323;49.394;8.434;2023-08-01T11:46:54;1.80;;;1.23;;
19816;SDS011;68323;49.394;8.434;2023-08-01T11:49:20;2.17;;;1.42;;
19816;SDS011;68323;49.394;8.434;2023-08-01T11:51:46;2.38;;;1.23;;
19816;SDS011;68323;49.394;8.434;2023-08-01T11:54:11;2.65;;;1.27;;
19816;SDS011;68323;49.394;8.434;2023-08-01T11:56:39;1.63;;;1.27;;
19816;SDS011;68323;49.394;8.434;2023-08-01T11:59:15;1.73;;;1.10;;
19816;SDS011;68323;49.394;8.434;2023-08-01T12:01:42;2.95;;;1.67;;
19816;SDS011;68323;49.394;8.434;2023-08-01T12:04:09;3.15;;;1.63;;
19816;SDS011;68323;49.394;8.434;2023-08-01T12:06:35;2.00;;;1.25;;
19816;SDS011;68323;49.394;8.434;2023-08-01T12:09:11;3.95;;;1.30;;
19816;SDS011;68323;49.394;8.434;2023-08-01T12:11:37;2.40;;;1.55;;
19816;SDS011;68323;49.394;8.434;2023-08-01T12:16:46;2.13;;;1.40;;
19816;SDS011;68323;49.394;8.434;2023-08-01T12:19:18;1.50;;;1.33;;
19816;SDS011;68323;49.394;8.434;2023-08-01T12:21:44;5.07;;;1.60;;
19816;SDS011;68323;49.394;8.434;2023-08-01T12:24:10;4.68;;;1.48;;
19816;SDS011;68323;49.394;8.434;2023-08-01T12:26:36;3.03;;;1.55;;
19816;SDS011;68323;49.394;8.434;2023-08-01T12:29:02;2.67;;;1.38;;
19816;SDS011;68323;49.394;8.434;2023-08-01T12:31:27;3.55;;;1.55;;
19816;SDS011;68323;49.394;8.434;2023-08-01T12:33:53;3.45;;;1.45;;
19816;SDS011;68323;49.394;8.434;2023-08-01T12:36:19;2.40;;;1.42;;
19816;SDS011;68323;49.394;8.434;2023-08-01T12:38:44;2.90;;;1.73;;
19816;SDS011;68323;49.394;8.434;2023-08-01T12:41:10;3.95;;;1.50;;
19816;SDS011;68323;49.394;8.434;2023-08-01T12:43:35;2.78;;;1.27;;
19816;SDS011;68323;49.394;8.434;2023-08-01T12:46:01;5.22;;;1.85;;
19816;SDS011;68323;49.394;8.434;2023-08-01T12:48:27;3.38;;;1.88;;
19816;SDS011;68323;49.394;8.434;2023-08-01T12:50:53;2.03;;;1.60;;
19816;SDS011;68323;49.394;8.434;2023-08-01T12:53:22;3.60;;;1.80;;
19816;SDS011;68323;49.394;8.434;2023-08-01T12:55:48;2.90;;;1.60;;
19816;SDS011;68323;49.394;8.434;2023-08-01T12:58:15;2.10;;;1.50;;
19816;SDS011;68323;49.394;8.434;2023-08-01T13:00:41;2.35;;;1.50;;
19816;SDS011;68323;49.394;8.434;2023-08-01T13:03:08;2.20;;;1.40;;
19816;SDS011;68323;49.394;8.434;2023-08-01T13:05:34;2.22;;;1.40;;
19816;SDS011;68323;49.394;8.434;2023-08-01T13:08:01;2.05;;;1.40;;
19816;SDS011;68323;49.394;8.434;2023-08-01T13:10:29;3.53;;;1.70;;
19816;SDS011;68323;49.394;8.434;2023-08-01T13:12:59;2.58;;;1.40;;
19816;SDS011;68323;49.394;8.434;2023-08-01T13:15:25;2.15;;;1.50;;
19816;SDS011;68323;49.394;8.434;2023-08-01T13:17:51;1.92;;;1.30;;
19816;SDS011;68323;49.394;8.434;2023-08-01T13:20:17;2.20;;;1.60;;
19816;SDS011;68323;49.394;8.434;2023-08-01T13:22:44;2.42;;;1.60;;
19816;SDS011;68323;49.394;8.434;2023-08-01T13:25:14;3.22;;;1.45;;
19816;SDS011;68323;49.394;8.434;2023-08-01T13:27:40;3.38;;;1.70;;
19816;SDS011;68323;49.394;8.434;2023-08-01T13:30:05;2.65;;;1.63;;
19816;SDS011;68323;49.394;8.434;2023-08-01T13:32:32;1.98;;;1.45;;
19816;SDS011;68323;49.394;8.434;2023-08-01T13:34:57;2.22;;;1.40;;
19816;SDS011;68323;49.394;8.434;2023-08-01T13:37:23;2.45;;;1.40;;
19816;SDS011;68323;49.394;8.434;2023-08-01T13:39:48;3.95;;;1.60;;
19816;SDS011;68323;49.394;8.434;2023-08-01T13:42:14;3.83;;;1.52;;
19816;SDS011;68323;49.394;8.434;2023-08-01T13:44:39;2.15;;;1.58;;
19816;SDS011;68323;49.394;8.434;2023-08-01T13:47:05;3.95;;;1.40;;
19816;SDS011;68323;49.394;8.434;2023-08-01T13:49:33;2.40;;;1.27;;
19816;SDS011;68323;49.394;8.434;2023-08-01T13:51:59;2.55;;;1.23;;
19816;SDS011;68323;49.394;8.434;2023-08-01T13:54:25;2.47;;;1.52;;
19816;SDS011;68323;49.394;8.434;2023-08-01T13:56:51;2.85;;;1.35;;
19816;SDS011;68323;49.394;8.434;2023-08-01T13:59:18;2.75;;;1.40;;
19816;SDS011;68323;49.394;8.434;2023-08-01T14:01:44;2.58;;;1.40;;
19816;SDS011;68323;49.394;8.434;2023-08-01T14:04:10;2.35;;;1.52;;
19816;SDS011;68323;49.394;8.434;2023-08-01T14:06:35;2.17;;;1.40;;
19816;SDS011;68323;49.394;8.434;2023-08-01T14:09:01;4.32;;;1.52;;
19816;SDS011;68323;49.394;8.434;2023-08-01T14:11:26;2.17;;;1.60;;
19816;SDS011;68323;49.394;8.434;2023-08-01T14:13:52;3.70;;;1.60;;
19816;SDS011;68323;49.394;8.434;2023-08-01T14:16:17;5.28;;;1.60;;
19816;SDS011;68323;49.394;8.434;2023-08-01T14:18:43;3.88;;;1.85;;
19816;SDS011;68323;49.394;8.434;2023-08-01T14:21:09;2.15;;;1.50;;
19816;SDS011;68323;49.394;8.434;2023-08-01T14:23:35;6.18;;;1.40;;
19816;SDS011;68323;49.394;8.434;2023-08-01T14:26:03;3.10;;;1.30;;
19816;SDS011;68323;49.394;8.434;2023-08-01T14:28:28;3.65;;;1.50;;
19816;SDS011;68323;49.394;8.434;2023-08-01T14:30:54;4.20;;;1.60;;
19816;SDS011;68323;49.394;8.434;2023-08-01T14:33:20;3.45;;;1.63;;
19816;SDS011;68323;49.394;8.434;2023-08-01T14:35:46;2.25;;;1.42;;
19816;SDS011;68323;49.394;8.434;2023-08-01T14:38:11;3.92;;;1.33;;
19816;SDS011;68323;49.394;8.434;2023-08-01T14:40:37;2.97;;;1.50;;
19816;SDS011;68323;49.394;8.434;2023-08-01T14:43:04;2.65;;;1.48;;
19816;SDS011;68323;49.394;8.434;2023-08-01T14:45:30;2.78;;;1.45;;